| time (UTC) | temp C | wind direction | speed KPH | gust KPH | rain 1hr cm | rain 24hr cm | rain mn cm | humidity % | barometer mb |
| 20260507085125 | 13 | 24 | 11.3 | 14.5 | 0.00 | 0.00 | 0.00 | 51 | 1009.7 |
| 20260507084226 | 12 | 34 | 12.9 | 16.1 | 0.00 | 0.00 | 0.00 | 53 | 1009.5 |
| 20260507083326 | 12 | 27 | 12.9 | 16.1 | 0.00 | 0.00 | 0.00 | 50 | 1009.6 |
| 20260507082425 | 12 | 349 | 14.5 | 17.7 | 0.00 | 0.00 | 0.00 | 46 | 1010.0 |
| 20260507081525 | 13 | 12 | 11.3 | 14.5 | 0.00 | 0.00 | 0.00 | 45 | 1010.1 |
| 20260507080625 | 12 | 16 | 11.3 | 12.9 | 0.00 | 0.00 | 0.00 | 47 | 1010.1 |
| 20260507075727 | 12 | 12 | 11.3 | 14.5 | 0.00 | 0.00 | 0.00 | 48 | 1010.1 |
| 20260507075039 | 11 | 29 | 11.3 | 14.5 | 0.00 | 0.00 | 0.00 | 50 | 1010.1 |
| 20260507073926 | 11 | 21 | 9.7 | 12.9 | 0.00 | 0.00 | 0.00 | 49 | 1009.9 |
| 20260507073025 | 12 | 20 | 9.7 | 12.9 | 0.00 | 0.00 | 0.00 | 47 | 1009.9 |
| 20260507072125 | 12 | 21 | 11.3 | 12.9 | 0.00 | 0.00 | 0.00 | 48 | 1009.9 |
| 20260507071225 | 12 | 33 | 9.7 | 11.3 | 0.00 | 0.00 | 0.00 | 43 | 1009.8 |
| 20260507070326 | 13 | 15 | 9.7 | 12.9 | 0.00 | 0.00 | 0.00 | 45 | 1009.9 |
| 20260507065426 | 13 | 17 | 9.7 | 11.3 | 0.00 | 0.00 | 0.00 | 47 | 1009.9 |
| 20260507064526 | 12 | 19 | 11.3 | 12.9 | 0.00 | 0.00 | 0.00 | 48 | 1009.8 |
| 20260507063625 | 12 | 25 | 9.7 | 11.3 | 0.00 | 0.00 | 0.00 | 49 | 1009.8 |
| 20260507062727 | 11 | 21 | 8.0 | 9.7 | 0.00 | 0.00 | 0.00 | 52 | 1009.7 |
| 20260507061826 | 12 | 28 | 9.7 | 11.3 | 0.00 | 0.00 | 0.00 | 51 | 1009.7 |
| 20260507060926 | 11 | 14 | 8.0 | 11.3 | 0.00 | 0.00 | 0.00 | 53 | 1009.8 |
| 20260507060025 | 12 | 26 | 6.4 | 11.3 | 0.00 | 0.00 | 0.00 | 52 | 1009.8 |
| 20260507055126 | 12 | 42 | 9.7 | 11.3 | 0.00 | 0.00 | 0.00 | 51 | 1009.6 |
| 20260507054226 | 12 | 7 | 8.0 | 11.3 | 0.00 | 0.00 | 0.00 | 52 | 1009.5 |
| 20260507053325 | 12 | 40 | 6.4 | 8.0 | 0.00 | 0.00 | 0.00 | 56 | 1009.8 |
| 20260507052426 | 11 | 9 | 6.4 | 8.0 | 0.00 | 0.00 | 0.00 | 67 | 1009.7 |
| 20260507051525 | 9 | 9 | 8.0 | 8.0 | 0.00 | 0.00 | 0.00 | 78 | 1009.6 |
| 20260507050625 | 7 | 3 | 4.8 | 6.4 | 0.00 | 0.00 | 0.00 | 86 | 1009.7 |
| 20260507045727 | 6 | 360 | 3.2 | 6.4 | 0.00 | 0.00 | 0.00 | 89 | 1009.4 |
| 20260507044825 | 5 | 360 | 1.6 | 3.2 | 0.00 | 0.00 | 0.00 | 91 | 1009.5 |
| 20260507043926 | 5 | 34 | 0.0 | 1.6 | 0.00 | 0.00 | 0.00 | 92 | 1009.5 |
| 20260507043025 | 3 | 0 | 0.0 | 0.0 | 0.00 | 0.00 | 0.00 | 93 | 1009.5 |
| 20260507042126 | 3 | 360 | 0.0 | 3.2 | 0.00 | 0.00 | 0.00 | 94 | 1009.5 |
| 20260507041225 | 3 | 347 | 1.6 | 3.2 | 0.00 | 0.00 | 0.00 | 95 | 1009.5 |
| 20260507040325 | 3 | 0 | 0.0 | 0.0 | 0.00 | 0.00 | 0.00 | 95 | 1009.5 |
| 20260507035426 | 2 | 0 | 0.0 | 0.0 | 0.00 | 0.00 | 0.00 | 91 | 1009.7 |
| 20260507034525 | 2 | 315 | 0.0 | 1.6 | 0.00 | 0.00 | 0.00 | 91 | 1009.6 |
| 20260507033626 | 2 | 315 | 0.0 | 1.6 | 0.00 | 0.00 | 0.00 | 91 | 1009.4 |
| 20260507032727 | 1 | 287 | 0.0 | 1.6 | 0.00 | 0.00 | 0.00 | 91 | 1009.3 |
| 20260507031826 | 1 | 275 | 0.0 | 1.6 | 0.00 | 0.00 | 0.00 | 91 | 1009.5 |
| 20260507030926 | 0 | 267 | 1.6 | 3.2 | 0.00 | 0.00 | 0.00 | 91 | 1009.3 |
| 20260507030026 | 0 | 252 | 1.6 | 3.2 | 0.00 | 0.00 | 0.00 | 91 | 1009.4 |
| 20260507025125 | 0 | 228 | 1.6 | 3.2 | 0.00 | 0.00 | 0.00 | 91 | 1009.6 |
| 20260507024228 | 0 | 235 | 1.6 | 3.2 | 0.00 | 0.00 | 0.00 | 91 | 1009.2 |
| 20260507023325 | 0 | 174 | 1.6 | 3.2 | 0.00 | 0.00 | 0.00 | 91 | 1009.2 |
| 20260507022425 | 0 | 315 | 0.0 | 1.6 | 0.00 | 0.00 | 0.00 | 91 | 1009.2 |
| 20260507021525 | 1 | 295 | 1.6 | 3.2 | 0.00 | 0.00 | 0.00 | 90 | 1009.3 |
| 20260507020626 | 1 | 0 | 0.0 | 0.0 | 0.00 | 0.00 | 0.00 | 89 | 1009.2 |
| 20260507015725 | 1 | 0 | 0.0 | 0.0 | 0.00 | 0.00 | 0.00 | 89 | 1009.2 |
| 20260507015038 | 1 | 313 | 1.6 | 3.2 | 0.00 | 0.00 | 0.00 | 89 | 1009.3 |
| 20260507013925 | 1 | 200 | 1.6 | 3.2 | 0.00 | 0.00 | 0.00 | 89 | 1009.3 |
| 20260507013025 | 1 | 209 | 1.6 | 3.2 | 0.00 | 0.00 | 0.00 | 89 | 1009.2 |
| 20260507012125 | 1 | 199 | 1.6 | 3.2 | 0.00 | 0.00 | 0.00 | 89 | 1009.0 |
| 20260507011227 | 1 | 167 | 0.0 | 3.2 | 0.00 | 0.00 | 0.00 | 89 | 1009.1 |
| 20260507010326 | 1 | 252 | 1.6 | 3.2 | 0.00 | 0.00 | 0.00 | 88 | 1009.3 |
| 20260507005426 | 1 | 296 | 1.6 | 3.2 | 0.00 | 0.00 | 0.00 | 88 | 1009.2 |
| 20260507004525 | 1 | 228 | 1.6 | 3.2 | 0.00 | 0.00 | 0.00 | 87 | 1009.2 |
| 20260507003625 | 1 | 240 | 1.6 | 3.2 | 0.00 | 0.00 | 0.00 | 87 | 1009.0 |
| 20260507002726 | 1 | 210 | 1.6 | 3.2 | 0.00 | 0.00 | 0.00 | 86 | 1009.1 |
| 20260507001825 | 0 | 205 | 0.0 | 3.2 | 0.00 | 0.00 | 0.00 | 87 | 1008.9 |
| 20260507000926 | 0 | 198 | 1.6 | 3.2 | 0.00 | 0.00 | 0.00 | 86 | 1009.0 |
| 20260507000025 | 0 | 190 | 1.6 | 3.2 | 0.00 | 0.00 | 0.00 | 86 | 1008.9 |
| 20260506235126 | 1 | 216 | 1.6 | 3.2 | 0.00 | 0.00 | 0.00 | 85 | 1009.0 |
| 20260506234226 | 1 | 236 | 1.6 | 3.2 | 0.00 | 0.00 | 0.00 | 85 | 1009.0 |
| 20260506233325 | 1 | 225 | 0.0 | 3.2 | 0.00 | 0.00 | 0.00 | 84 | 1009.3 |
| 20260506232425 | 1 | 203 | 3.2 | 3.2 | 0.00 | 0.00 | 0.00 | 83 | 1009.1 |
| 20260506231526 | 1 | 221 | 1.6 | 3.2 | 0.00 | 0.00 | 0.00 | 83 | 1009.0 |
| 20260506230835 | 1 | 192 | 1.6 | 3.2 | 0.00 | 0.00 | 0.00 | 82 | 1009.1 |
| 20260506225726 | 1 | 270 | 1.6 | 3.2 | 0.00 | 0.00 | 0.00 | 81 | 1009.0 |
| 20260506224826 | 1 | 0 | 0.0 | 0.0 | 0.00 | 0.00 | 0.00 | 80 | 1009.0 |
| 20260506223925 | 1 | 272 | 0.0 | 3.2 | 0.00 | 0.00 | 0.00 | 80 | 1009.0 |
| 20260506223026 | 2 | 247 | 1.6 | 3.2 | 0.00 | 0.00 | 0.00 | 78 | 1009.1 |
| 20260506222125 | 2 | 287 | 0.0 | 1.6 | 0.00 | 0.00 | 0.00 | 78 | 1008.9 |
| 20260506221226 | 2 | 294 | 0.0 | 3.2 | 0.00 | 0.00 | 0.00 | 77 | 1008.9 |
| 20260506220536 | 2 | 292 | 1.6 | 3.2 | 0.00 | 0.00 | 0.00 | 76 | 1008.9 |
| 20260506215426 | 2 | 183 | 1.6 | 3.2 | 0.00 | 0.00 | 0.00 | 75 | 1008.9 |
| 20260506214525 | 2 | 180 | 1.6 | 3.2 | 0.00 | 0.00 | 0.00 | 75 | 1009.0 |
| 20260506213625 | 2 | 180 | 0.0 | 3.2 | 0.00 | 0.00 | 0.00 | 75 | 1008.7 |
| 20260506212727 | 2 | 187 | 1.6 | 3.2 | 0.00 | 0.00 | 0.00 | 78 | 1008.6 |
| 20260506211825 | 3 | 229 | 1.6 | 3.2 | 0.00 | 0.00 | 0.00 | 78 | 1008.8 |
| 20260506210925 | 3 | 135 | 0.0 | 3.2 | 0.00 | 0.00 | 0.00 | 76 | 1008.5 |
| 20260506210026 | 3 | 202 | 0.0 | 1.6 | 0.00 | 0.00 | 0.00 | 76 | 1008.6 |
| 20260506205335 | 3 | 202 | 0.0 | 1.6 | 0.00 | 0.00 | 0.00 | 75 | 1008.6 |
| 20260506204227 | 3 | 207 | 1.6 | 3.2 | 0.00 | 0.00 | 0.00 | 75 | 1008.5 |
| 20260506203325 | 3 | 184 | 3.2 | 3.2 | 0.00 | 0.00 | 0.00 | 74 | 1008.4 |
| 20260506202425 | 3 | 184 | 1.6 | 3.2 | 0.00 | 0.00 | 0.00 | 73 | 1008.4 |
| 20260506201526 | 3 | 176 | 0.0 | 3.2 | 0.00 | 0.00 | 0.00 | 71 | 1008.5 |
| 20260506200837 | 4 | 146 | 3.2 | 3.2 | 0.00 | 0.00 | 0.00 | 70 | 1008.6 |
| 20260506195728 | 4 | 170 | 3.2 | 4.8 | 0.00 | 0.00 | 0.00 | 68 | 1008.7 |
| 20260506194825 | 5 | 173 | 3.2 | 4.8 | 0.00 | 0.00 | 0.00 | 68 | 1008.6 |
| 20260506194139 | 5 | 168 | 3.2 | 4.8 | 0.00 | 0.00 | 0.00 | 65 | 1008.6 |
| 20260506193026 | 5 | 191 | 3.2 | 4.8 | 0.00 | 0.00 | 0.00 | 63 | 1008.8 |
| 20260506192125 | 5 | 341 | 3.2 | 4.8 | 0.00 | 0.00 | 0.00 | 62 | 1008.7 |
| 20260506191227 | 5 | 340 | 3.2 | 4.8 | 0.00 | 0.00 | 0.00 | 62 | 1008.7 |
| 20260506190326 | 5 | 340 | 4.8 | 6.4 | 0.00 | 0.00 | 0.00 | 62 | 1008.5 |
| 20260506185425 | 5 | 329 | 4.8 | 6.4 | 0.00 | 0.00 | 0.00 | 61 | 1008.5 |
| 20260506184526 | 6 | 341 | 4.8 | 6.4 | 0.00 | 0.00 | 0.00 | 60 | 1008.7 |
| 20260506183625 | 6 | 309 | 6.4 | 6.4 | 0.00 | 0.00 | 0.00 | 61 | 1008.4 |
| 20260506182726 | 6 | 333 | 4.8 | 6.4 | 0.00 | 0.00 | 0.00 | 61 | 1008.4 |
| 20260506181826 | 6 | 327 | 4.8 | 6.4 | 0.00 | 0.00 | 0.00 | 61 | 1008.3 |
| 20260506180925 | 6 | 317 | 4.8 | 6.4 | 0.00 | 0.00 | 0.00 | 60 | 1008.4 |
| 20260506180025 | 6 | 305 | 4.8 | 6.4 | 0.00 | 0.00 | 0.00 | 59 | 1008.3 |
| 20260506175125 | 7 | 298 | 4.8 | 6.4 | 0.00 | 0.00 | 0.00 | 57 | 1008.4 |
| 20260506174227 | 7 | 307 | 3.2 | 6.4 | 0.00 | 0.00 | 0.00 | 55 | 1008.3 |
| 20260506173325 | 7 | 301 | 3.2 | 6.4 | 0.00 | 0.00 | 0.00 | 53 | 1008.5 |
| 20260506172425 | 7 | 278 | 4.8 | 6.4 | 0.00 | 0.00 | 0.00 | 51 | 1008.6 |
| 20260506171525 | 7 | 315 | 3.2 | 4.8 | 0.00 | 0.00 | 0.00 | 50 | 1008.5 |
| 20260506170625 | 7 | 286 | 3.2 | 6.4 | 0.00 | 0.00 | 0.00 | 51 | 1008.4 |
| 20260506165727 | 8 | 323 | 3.2 | 6.4 | 0.00 | 0.00 | 0.00 | 50 | 1008.3 |
| 20260506164825 | 8 | 284 | 4.8 | 8.0 | 0.00 | 0.00 | 0.00 | 47 | 1008.8 |
| 20260506163926 | 8 | 299 | 4.8 | 8.0 | 0.00 | 0.00 | 0.00 | 46 | 1008.5 |
| 20260506163025 | 9 | 278 | 6.4 | 9.7 | 0.00 | 0.00 | 0.00 | 43 | 1008.5 |
| 20260506162126 | 9 | 302 | 8.0 | 11.3 | 0.00 | 0.00 | 0.00 | 41 | 1008.5 |
| 20260506161225 | 10 | 296 | 8.0 | 12.9 | 0.00 | 0.00 | 0.00 | 40 | 1008.6 |
| 20260506160326 | 10 | 304 | 6.4 | 11.3 | 0.00 | 0.00 | 0.00 | 42 | 1008.6 |
| 20260506155426 | 10 | 335 | 6.4 | 11.3 | 0.00 | 0.00 | 0.00 | 47 | 1008.7 |
| 20260506154735 | 9 | 301 | 6.4 | 11.3 | 0.00 | 0.00 | 0.00 | 49 | 1008.5 |
| 20260506153625 | 9 | 303 | 9.7 | 12.9 | 0.00 | 0.00 | 0.00 | 49 | 1008.7 |
| 20260506152726 | 10 | 294 | 8.0 | 12.9 | 0.00 | 0.00 | 0.00 | 47 | 1008.9 |
| 20260506152037 | 10 | 293 | 8.0 | 11.3 | 0.00 | 0.00 | 0.00 | 46 | 1009.0 |
| 20260506151139 | 10 | 298 | 8.0 | 12.9 | 0.00 | 0.00 | 0.00 | 48 | 1008.8 |
| 20260506150236 | 9 | 293 | 9.7 | 12.9 | 0.00 | 0.00 | 0.00 | 50 | 1009.1 |
| 20260506145125 | 9 | 283 | 9.7 | 11.3 | 0.00 | 0.00 | 0.00 | 50 | 1008.8 |
| 20260506144225 | 9 | 294 | 9.7 | 12.9 | 0.00 | 0.00 | 0.00 | 51 | 1009.0 |
| 20260506143326 | 9 | 295 | 9.7 | 12.9 | 0.00 | 0.00 | 0.00 | 50 | 1009.1 |
| 20260506142636 | 8 | 291 | 12.9 | 17.7 | 0.00 | 0.00 | 0.00 | 45 | 1009.0 |
| 20260506141525 | 10 | 286 | 11.3 | 12.9 | 0.00 | 0.00 | 0.00 | 43 | 1009.4 |
| 20260506140625 | 10 | 304 | 11.3 | 16.1 | 0.00 | 0.00 | 0.00 | 41 | 1009.4 |
| 20260506135725 | 10 | 274 | 12.9 | 17.7 | 0.00 | 0.00 | 0.00 | 39 | 1009.1 |
| 20260506134825 | 10 | 289 | 11.3 | 16.1 | 0.00 | 0.00 | 0.00 | 38 | 1009.2 |
| 20260506133925 | 11 | 285 | 11.3 | 16.1 | 0.00 | 0.00 | 0.00 | 34 | 1009.3 |
| 20260506133025 | 11 | 290 | 9.7 | 14.5 | 0.00 | 0.00 | 0.00 | 37 | 1009.0 |
| 20260506132126 | 10 | 310 | 12.9 | 17.7 | 0.00 | 0.00 | 0.00 | 40 | 1009.1 |
| 20260506131230 | 10 | 280 | 12.9 | 17.7 | 0.00 | 0.00 | 0.00 | 35 | 1009.0 |
| 20260506130325 | 11 | 285 | 12.9 | 17.7 | 0.00 | 0.00 | 0.00 | 32 | 1009.3 |
| 20260506125425 | 12 | 302 | 16.1 | 17.7 | 0.00 | 0.00 | 0.00 | 28 | 1009.0 |
| 20260506124525 | 12 | 297 | 12.9 | 16.1 | 0.00 | 0.00 | 0.00 | 31 | 1008.7 |
| 20260506123839 | 11 | 288 | 11.3 | 17.7 | 0.00 | 0.00 | 0.00 | 31 | 1008.8 |
| 20260506122727 | 11 | 313 | 14.5 | 17.7 | 0.00 | 0.00 | 0.00 | 30 | 1009.1 |
| 20260506121826 | 12 | 288 | 11.3 | 16.1 | 0.00 | 0.00 | 0.00 | 29 | 1009.1 |
| 20260506120926 | 12 | 305 | 12.9 | 17.7 | 0.00 | 0.00 | 0.00 | 30 | 1009.1 |
| 20260506120025 | 11 | 292 | 14.5 | 17.7 | 0.00 | 0.00 | 0.00 | 29 | 1009.0 |
| 20260506115336 | 12 | 289 | 16.1 | 19.3 | 0.00 | 0.00 | 0.00 | 28 | 1008.9 |
| 20260506114226 | 13 | 315 | 12.9 | 17.7 | 0.00 | 0.00 | 0.00 | 32 | 1009.0 |
| 20260506113325 | 13 | 321 | 12.9 | 17.7 | 0.00 | 0.00 | 0.00 | 32 | 1009.1 |
| 20260506112426 | 12 | 309 | 12.9 | 17.7 | 0.00 | 0.00 | 0.00 | 30 | 1009.2 |
| 20260506111525 | 12 | 297 | 14.5 | 17.7 | 0.00 | 0.00 | 0.00 | 28 | 1009.2 |
| 20260506110625 | 12 | 298 | 14.5 | 17.7 | 0.00 | 0.00 | 0.00 | 29 | 1009.2 |
| 20260506105725 | 12 | 296 | 14.5 | 17.7 | 0.00 | 0.00 | 0.00 | 29 | 1009.1 |
| 20260506104825 | 12 | 322 | 14.5 | 24.1 | 0.00 | 0.00 | 0.00 | 31 | 1009.3 |
| 20260506104139 | 11 | 279 | 16.1 | 20.9 | 0.00 | 0.00 | 0.00 | 31 | 1009.2 |
| 20260506103025 | 11 | 282 | 16.1 | 22.5 | 0.00 | 0.00 | 0.00 | 33 | 1009.0 |
| 20260506102125 | 11 | 285 | 16.1 | 17.7 | 0.00 | 0.00 | 0.00 | 32 | 1009.2 |
| 20260506101226 | 11 | 277 | 14.5 | 17.7 | 0.00 | 0.00 | 0.00 | 34 | 1009.1 |
| 20260506100325 | 11 | 306 | 14.5 | 20.9 | 0.00 | 0.00 | 0.00 | 39 | 1009.1 |
| 20260506095425 | 11 | 291 | 16.1 | 20.9 | 0.00 | 0.00 | 0.00 | 37 | 1009.0 |
| 20260506094525 | 11 | 294 | 14.5 | 20.9 | 0.00 | 0.00 | 0.00 | 40 | 1009.1 |
| 20260506093625 | 10 | 302 | 17.7 | 19.3 | 0.00 | 0.00 | 0.00 | 40 | 1008.9 |
| 20260506092727 | 10 | 281 | 17.7 | 24.1 | 0.00 | 0.00 | 0.00 | 38 | 1009.0 |
| 20260506092035 | 11 | 289 | 14.5 | 24.1 | 0.00 | 0.00 | 0.00 | 39 | 1008.9 |
| 20260506091138 | 10 | 288 | 14.5 | 19.3 | 0.00 | 0.00 | 0.00 | 40 | 1008.9 |
| 20260506090025 | 10 | 259 | 17.7 | 22.5 | 0.00 | 0.00 | 0.00 | 38 | 1008.5 |